Time;durP1;ratioP1;P1;durP2;ratioP2;P2;SDS_P1;SDS_P2;PMS_P1;PMS_P2;Temp;Humidity;BMP_temperature;BMP_pressure;BME280_temperature;BME280_humidity;BME280_pressure;Samples;Min_cycle;Max_cycle;Signal;HPM_P1;HPM_P2
2022/12/15 00:40:57;;;;;;;14.10;10.10;;;15.50;69.00;;;17.58;36.36;97351.28;5058505;28;20037;-73
2022/12/15 00:43:25;;;;;;;14.85;10.35;;;15.50;69.20;;;17.54;36.48;97359.41;5028239;28;20041;-73
2022/12/15 00:48:37;;;;;;;16.48;10.18;;;15.60;68.70;;;17.53;36.01;97360.56;5045924;28;20047;-72
2022/12/15 00:51:03;;;;;;;15.07;10.80;;;15.60;68.80;;;17.53;36.17;97366.06;5038436;28;20044;-72
2022/12/15 01:21:00;;;;;;;18.20;10.55;;;15.50;69.00;;;17.49;36.20;97395.31;5073709;28;20048;-73
2022/12/15 01:23:26;;;;;;;21.38;11.10;;;15.50;68.90;;;17.47;36.25;97397.59;5033154;28;20480;-72
2022/12/15 01:25:52;;;;;;;16.98;10.25;;;15.50;68.70;;;17.51;36.58;97395.75;5047594;28;20047;-73
2022/12/15 01:28:19;;;;;;;14.73;9.43;;;15.50;69.10;;;17.53;36.43;97401.69;5043420;28;20545;-73
2022/12/15 01:30:49;;;;;;;12.77;9.02;;;15.50;69.20;;;17.55;36.30;97402.13;5034059;28;20044;-73
2022/12/15 01:33:15;;;;;;;15.00;9.95;;;15.50;69.30;;;17.60;36.25;97397.53;5058093;28;20085;-72
2022/12/15 01:35:41;;;;;;;15.00;9.85;;;15.50;68.70;;;17.59;36.26;97399.47;5061573;28;20468;-72
2022/12/15 01:38:07;;;;;;;13.77;9.25;;;15.60;68.80;;;17.63;35.92;97394.88;5044458;28;20044;-71
2022/12/15 01:40:46;;;;;;;12.18;9.02;;;15.60;68.40;;;17.63;36.11;97389.41;5057745;28;20044;-71
2022/12/15 01:43:21;;;;;;;13.50;9.52;;;15.70;68.00;;;17.65;36.12;97394.50;5042996;28;20041;-72
2022/12/15 01:46:11;;;;;;;12.75;9.15;;;15.70;68.70;;;17.66;36.21;97387.91;5045146;28;20040;-72
2022/12/15 01:49:10;;;;;;;14.50;9.20;;;15.70;68.80;;;17.73;35.98;97393.53;5046970;28;20177;-72
2022/12/15 01:51:47;;;;;;;12.13;9.27;;;15.70;68.40;;;17.70;36.00;97400.53;5044324;28;20036;-72
2022/12/15 01:54:17;;;;;;;12.85;9.05;;;15.70;68.40;;;17.73;36.11;97393.53;5044386;28;20495;-72
2022/12/15 01:56:46;;;;;;;11.82;9.25;;;15.70;68.40;;;17.76;36.01;97406.56;5044113;28;20094;-72
2022/12/15 01:59:19;;;;;;;17.38;10.73;;;15.70;68.60;;;17.74;36.19;97401.41;5043808;28;20040;-72
2022/12/15 02:01:46;;;;;;;14.10;9.05;;;15.60;68.80;;;17.71;36.28;97404.88;5045622;28;20068;-72
2022/12/15 02:04:12;;;;;;;14.70;8.90;;;15.60;69.10;;;17.70;36.22;97405.22;5035656;28;20047;-72
2022/12/15 02:06:38;;;;;;;13.10;9.25;;;15.60;68.90;;;17.79;35.90;97412.16;5052352;28;20682;-72
2022/12/15 02:09:04;;;;;;;13.93;8.52;;;15.60;68.90;;;17.82;36.05;97418.06;5072614;28;20079;-72
2022/12/15 02:11:56;;;;;;;12.70;9.32;;;15.60;68.80;;;17.82;35.96;97418.88;5037187;28;20566;-72
2022/12/15 02:15:12;;;;;;;12.48;9.30;;;15.60;68.80;;;17.85;36.05;97420.91;5058859;28;20124;-72
2022/12/15 02:17:50;;;;;;;11.48;8.93;;;15.60;69.20;;;17.85;36.19;97423.63;5023688;28;20055;-72
2022/12/15 02:20:45;;;;;;;12.40;9.70;;;15.60;69.60;;;17.90;36.05;97428.84;5056086;28;20036;-72
2022/12/15 02:23:39;;;;;;;13.27;9.65;;;15.70;69.20;;;17.90;35.98;97425.31;5060964;28;20056;-72
2022/12/15 02:26:28;;;;;;;14.05;9.48;;;15.60;69.00;;;17.89;35.84;97427.28;5058045;28;20036;-73
2022/12/15 02:29:38;;;;;;;12.98;9.70;;;15.60;69.10;;;17.94;35.91;97435.25;5072294;28;20048;-73
2022/12/15 02:32:13;;;;;;;13.57;9.05;;;15.60;69.20;;;17.95;36.04;97436.03;5059932;28;20040;-72
2022/12/15 02:34:54;;;;;;;16.88;8.73;;;15.60;69.40;;;17.97;36.10;97441.97;5055694;28;20618;-72
2022/12/15 02:37:31;;;;;;;12.30;8.35;;;15.60;69.60;;;17.99;35.78;97454.16;5040678;28;20040;-72
2022/12/15 02:39:58;;;;;;;11.07;7.78;;;15.70;69.10;;;18.02;35.87;97447.19;5038250;28;20060;-72
2022/12/15 02:42:24;;;;;;;13.65;8.85;;;15.70;69.20;;;18.05;35.77;97445.66;5024276;28;20040;-72
2022/12/15 02:45:14;;;;;;;15.15;8.95;;;15.70;68.90;;;18.06;35.92;97459.00;5055554;28;20584;-72
2022/12/15 02:48:25;;;;;;;11.70;7.78;;;15.80;68.90;;;18.08;36.09;97458.66;5054761;28;20041;-72
2022/12/15 02:51:24;;;;;;;17.48;8.60;;;15.80;69.20;;;18.08;36.17;97462.19;5029082;28;20048;-72
2022/12/15 02:54:04;;;;;;;11.88;8.10;;;15.80;69.40;;;18.12;35.76;97454.06;5057193;28;20381;-73
2022/12/15 02:56:45;;;;;;;12.02;8.70;;;15.80;69.00;;;18.12;35.93;97468.59;5060540;28;20566;-72
2022/12/15 02:59:31;;;;;;;13.10;9.10;;;15.90;69.10;;;18.13;35.76;97475.66;5071049;28;20075;-72
2022/12/15 03:02:04;;;;;;;11.50;7.30;;;15.90;68.90;;;18.09;36.11;97473.97;5011250;28;20504;-73
2022/12/15 03:04:32;;;;;;;11.80;8.95;;;15.80;69.00;;;18.16;36.04;97472.19;5023729;28;20118;-72
2022/12/15 03:07:03;;;;;;;12.98;9.25;;;15.80;69.40;;;18.21;36.06;97471.91;5026811;28;20040;-72
2022/12/15 03:09:30;;;;;;;13.00;8.17;;;15.80;69.70;;;18.21;35.79;97471.13;5039199;28;20101;-72
2022/12/15 03:11:56;;;;;;;13.48;8.13;;;15.80;69.50;;;18.20;35.89;97467.59;5037839;28;20037;-72
2022/12/15 03:14:24;;;;;;;10.93;8.52;;;15.80;69.30;;;18.18;35.80;97467.16;5055838;28;20089;-72
2022/12/15 03:16:51;;;;;;;13.50;9.65;;;15.90;69.10;;;18.23;35.61;97464.13;5056601;28;20040;-72
2022/12/15 03:19:18;;;;;;;10.35;7.65;;;16.00;68.90;;;18.22;35.73;97467.25;5024073;28;20041;-73
2022/12/15 03:21:44;;;;;;;10.65;8.43;;;15.90;69.20;;;18.22;35.89;97465.28;5041523;28;20045;-73
2022/12/15 03:24:10;;;;;;;11.88;8.27;;;15.90;69.30;;;18.22;35.85;97472.75;5040357;28;20044;-73
2022/12/15 03:26:36;;;;;;;10.65;8.82;;;15.90;70.10;;;18.24;35.71;97475.91;5036647;28;20041;-73
2022/12/15 03:29:02;;;;;;;10.70;8.20;;;15.90;69.20;;;18.23;36.04;97479.81;5038411;28;20039;-73
2022/12/15 03:31:28;;;;;;;10.77;7.88;;;15.90;69.20;;;18.27;35.84;97477.97;5045098;28;20114;-73
2022/12/15 03:33:54;;;;;;;9.70;7.75;;;16.00;69.20;;;18.26;35.83;97492.81;5058282;28;20119;-72
2022/12/15 03:36:21;;;;;;;14.20;9.13;;;16.00;69.20;;;18.29;35.86;97496.78;5043760;28;20040;-72
2022/12/15 03:38:48;;;;;;;12.88;8.52;;;15.90;69.40;;;18.29;35.99;97491.31;5051716;28;20500;-72
2022/12/15 03:41:14;;;;;;;11.82;8.15;;;16.00;69.50;;;18.33;35.65;97497.69;5027876;28;20036;-72
2022/12/15 03:43:40;;;;;;;11.82;8.43;;;16.00;69.40;;;18.30;35.60;97501.16;5044676;28;20071;-72
2022/12/15 03:46:06;;;;;;;11.70;8.68;;;16.00;69.10;;;18.31;35.54;97503.53;5043441;28;20049;-72
2022/12/15 03:48:32;;;;;;;12.43;9.30;;;16.00;69.20;;;18.28;35.69;97507.00;5057646;28;20123;-72
2022/12/15 03:50:58;;;;;;;10.13;7.68;;;16.00;69.10;;;18.27;35.75;97508.16;5059991;28;20479;-72
2022/12/15 03:53:24;;;;;;;11.43;8.63;;;15.90;69.30;;;18.29;35.76;97516.00;5040699;28;20093;-73
2022/12/15 03:55:50;;;;;;;12.90;9.50;;;15.90;69.00;;;18.27;35.74;97513.63;5051977;28;20536;-73
2022/12/15 03:58:16;;;;;;;13.27;8.90;;;15.90;68.90;;;18.24;35.58;97514.31;5056589;28;20036;-73
2022/12/15 04:00:42;;;;;;;11.15;8.45;;;15.90;68.60;;;18.25;35.60;97521.44;5040520;28;20059;-73
2022/12/15 04:03:09;;;;;;;13.38;9.55;;;15.90;68.80;;;18.27;35.55;97521.88;5055928;28;20590;-72
2022/12/15 04:05:36;;;;;;;12.13;8.90;;;15.90;68.90;;;18.29;35.71;97527.00;5055734;28;20049;-73
2022/12/15 04:08:03;;;;;;;11.85;8.40;;;16.00;69.10;;;18.30;35.65;97523.91;5070474;28;20468;-72
2022/12/15 04:10:31;;;;;;;11.52;8.32;;;16.00;69.00;;;18.32;35.55;97529.84;5031226;28;20045;-72
2022/12/15 04:13:08;;;;;;;11.45;7.93;;;16.00;68.90;;;18.27;35.48;97532.84;5064457;28;20075;-72
2022/12/15 04:15:35;;;;;;;12.38;8.95;;;16.00;68.70;;;18.30;35.41;97526.66;5029887;28;20048;-71
2022/12/15 04:18:03;;;;;;;12.10;8.75;;;16.00;68.30;;;18.26;34.86;97530.44;5038174;28;20480;-72
2022/12/15 04:20:29;;;;;;;13.88;9.35;;;16.20;67.10;;;18.18;34.52;97530.28;5018480;28;20488;-72
2022/12/15 04:22:55;;;;;;;16.73;10.27;;;16.20;66.00;;;18.18;34.53;97541.25;5023484;28;20718;-72
2022/12/15 05:31:56;;;;;;;12.45;9.30;;;16.00;67.70;;;18.19;34.97;97625.19;5055305;28;20040;-73
2022/12/15 05:34:30;;;;;;;12.27;9.63;;;16.10;67.10;;;18.20;34.78;97626.00;5020675;28;20124;-73
2022/12/15 05:36:57;;;;;;;14.00;9.43;;;16.10;66.80;;;18.17;34.72;97634.94;5057830;28;20047;-73
2022/12/15 05:39:23;;;;;;;12.15;8.80;;;16.10;66.70;;;18.15;34.79;97648.19;5039952;28;20043;-73
2022/12/15 05:41:51;;;;;;;11.05;9.20;;;16.10;66.90;;;18.18;34.89;97648.28;5031969;28;20048;-73
2022/12/15 05:44:17;;;;;;;12.38;10.05;;;16.00;67.50;;;18.20;35.23;97650.69;5029512;28;20090;-73
2022/12/15 05:46:43;;;;;;;13.40;9.50;;;16.00;67.90;;;18.18;35.03;97647.50;5006351;28;20048;-73
2022/12/15 05:49:15;;;;;;;14.85;9.98;;;16.00;67.30;;;18.16;34.60;97647.84;5022627;28;20234;-73
2022/12/15 05:51:43;;;;;;;14.18;10.13;;;16.10;67.00;;;18.11;35.01;97658.28;5054351;28;20041;-73
2022/12/15 05:54:11;;;;;;;12.88;10.38;;;16.10;66.90;;;18.18;34.90;97666.72;5041007;28;20507;-73
2022/12/15 05:56:37;;;;;;;15.60;9.95;;;16.10;66.90;;;18.15;34.99;97665.47;5039498;28;20048;-73
2022/12/15 05:59:03;;;;;;;13.60;9.23;;;16.00;66.80;;;18.17;34.65;97674.16;5025844;28;20439;-73
2022/12/15 06:01:30;;;;;;;13.75;9.32;;;16.10;66.90;;;18.16;34.96;97677.22;5025807;28;20053;-73
2022/12/15 06:03:57;;;;;;;17.00;10.55;;;16.10;67.20;;;18.14;35.36;97680.34;5017714;28;20060;-73
2022/12/15 06:06:23;;;;;;;13.13;9.75;;;16.00;67.50;;;18.16;35.32;97690.94;5025764;28;20037;-73
2022/12/15 06:08:49;;;;;;;13.88;10.32;;;16.00;67.80;;;18.15;35.15;97692.91;5036731;28;21727;-73
2022/12/15 06:11:17;;;;;;;13.57;9.68;;;16.00;67.50;;;18.18;35.07;97703.19;5056978;28;20045;-73
2022/12/15 06:13:43;;;;;;;20.35;10.70;;;16.10;67.30;;;18.19;35.10;97699.31;5048355;28;20041;-73
2022/12/15 06:16:14;;;;;;;14.15;9.80;;;16.10;67.10;;;18.15;34.99;97700.34;5067599;28;20059;-73
2022/12/15 06:18:43;;;;;;;14.55;9.30;;;16.10;67.10;;;18.15;35.38;97703.88;5023365;28;20801;-73
2022/12/15 06:21:14;;;;;;;15.07;9.82;;;16.10;67.30;;;18.17;35.18;97709.03;5022503;28;20052;-73
2022/12/15 06:23:41;;;;;;;14.10;10.70;;;16.10;68.10;;;18.16;35.47;97723.88;5031126;28;20063;-73
2022/12/15 06:26:14;;;;;;;16.10;10.43;;;16.20;68.00;;;18.14;35.33;97727.00;5022756;28;20043;-73
2022/12/15 06:28:40;;;;;;;19.00;10.40;;;16.20;67.40;;;18.15;35.48;97736.03;5056899;28;20048;-73
2022/12/15 06:31:08;;;;;;;12.93;8.93;;;16.30;67.30;;;18.18;35.03;97751.78;5029352;28;20381;-74
2022/12/15 06:33:35;;;;;;;14.15;9.57;;;16.20;67.30;;;18.13;35.11;97749.28;5039733;28;20462;-73
2022/12/15 06:36:25;;;;;;;13.50;10.15;;;16.10;67.20;;;18.16;35.57;97748.59;5056880;28;20041;-73
2022/12/15 06:38:51;;;;;;;16.35;9.63;;;16.20;67.80;;;18.21;35.43;97760.09;5033486;28;20040;-73
2022/12/15 06:41:20;;;;;;;12.48;9.63;;;16.20;68.00;;;18.16;35.33;97754.88;5051707;28;20093;-73
2022/12/15 06:43:50;;;;;;;17.52;10.48;;;16.20;67.70;;;18.15;35.40;97771.69;5016801;28;20131;-72
2022/12/15 06:46:16;;;;;;;14.38;10.52;;;16.20;67.40;;;18.11;35.15;97768.84;5021753;28;20045;-72
2022/12/15 06:48:44;;;;;;;17.25;11.02;;;16.30;67.50;;;18.13;35.45;97777.53;5034616;28;20472;-73
2022/12/15 06:51:11;;;;;;;13.95;9.98;;;16.20;67.20;;;18.15;35.54;97782.69;5020397;28;20566;-74
2022/12/15 06:53:39;;;;;;;14.50;10.05;;;16.10;67.70;;;18.16;35.53;97789.75;5042389;28;20045;-73
2022/12/15 06:56:09;;;;;;;17.52;10.02;;;16.10;68.10;;;18.15;35.71;97779.94;5042937;28;20055;-74
2022/12/15 06:58:35;;;;;;;13.90;9.82;;;16.10;68.40;;;18.15;35.45;97790.91;5054468;28;20048;-73
2022/12/15 07:01:08;;;;;;;15.48;10.25;;;16.20;67.70;;;18.11;35.36;97785.31;5051729;28;20041;-73
2022/12/15 07:03:34;;;;;;;12.27;9.25;;;16.20;67.40;;;18.13;35.38;97790.47;5066502;28;20044;-73
2022/12/15 07:06:02;;;;;;;19.27;10.38;;;16.20;67.20;;;18.15;35.38;97804.63;5016530;28;20065;-73
2022/12/15 07:08:30;;;;;;;19.73;10.68;;;16.30;67.30;;;18.12;35.66;97806.13;5020553;28;20053;-73
2022/12/15 07:10:57;;;;;;;15.07;9.35;;;16.20;67.70;;;18.19;35.59;97813.75;5023013;28;20149;-73
2022/12/15 07:13:22;;;;;;;13.48;9.88;;;16.20;68.00;;;18.15;35.46;97812.88;5054470;28;20040;-73
2022/12/15 07:15:49;;;;;;;13.68;10.02;;;16.30;67.50;;;18.18;35.34;97812.97;5025355;28;20043;-73
2022/12/15 07:18:15;;;;;;;13.70;9.65;;;16.30;67.20;;;18.17;35.51;97813.31;5043999;28;20041;-73
2022/12/15 07:20:42;;;;;;;15.57;10.65;;;16.30;67.10;;;18.10;35.43;97821.34;5042579;28;20049;-73
2022/12/15 07:23:08;;;;;;;13.55;9.70;;;16.20;67.10;;;18.10;35.38;97815.84;5036433;28;20372;-73
2022/12/15 07:25:35;;;;;;;14.77;9.85;;;16.20;67.50;;;18.15;35.62;97823.84;5031019;28;20044;-73
2022/12/15 07:28:01;;;;;;;18.25;11.23;;;16.20;68.10;;;18.16;35.99;97828.97;5036303;28;20036;-73
2022/12/15 07:30:27;;;;;;;13.90;10.02;;;16.20;68.40;;;18.14;35.54;97839.53;5032402;28;20075;-73
2022/12/15 07:32:53;;;;;;;11.65;8.93;;;16.10;67.90;;;18.17;35.46;97846.25;5014749;28;20052;-73
2022/12/15 07:35:20;;;;;;;13.15;9.88;;;16.20;67.40;;;18.17;35.45;97849.00;5052554;28;20350;-73
2022/12/15 07:37:46;;;;;;;15.25;10.60;;;16.30;67.50;;;18.13;35.32;97856.31;5068930;28;20190;-73
2022/12/15 07:40:12;;;;;;;14.73;9.77;;;16.30;67.20;;;18.11;35.76;97858.59;5041780;28;20044;-73
2022/12/15 07:42:38;;;;;;;12.88;9.52;;;16.30;67.50;;;18.12;35.67;97869.25;5055316;28;20407;-73
2022/12/15 07:45:06;;;;;;;13.77;9.98;;;16.20;67.90;;;18.13;35.67;97886.50;5048827;28;20041;-73
2022/12/15 07:47:32;;;;;;;20.88;12.00;;;16.20;68.10;;;18.12;35.47;97888.47;5067504;28;20128;-73
2022/12/15 07:49:58;;;;;;;17.25;10.50;;;16.20;67.70;;;18.13;35.40;97875.53;5051688;28;20037;-73
2022/12/15 07:52:24;;;;;;;14.43;9.52;;;16.20;67.50;;;18.13;35.39;97879.06;5057281;28;20366;-73
2022/12/15 07:54:50;;;;;;;14.43;10.52;;;16.30;67.50;;;18.11;35.54;97883.31;5022887;28;20450;-73
2022/12/15 07:57:16;;;;;;;13.23;10.25;;;16.20;67.40;;;18.10;35.78;97890.75;5047179;28;20488;-73
2022/12/15 07:59:43;;;;;;;16.75;11.18;;;16.20;67.80;;;18.15;35.57;97886.97;5040463;28;20045;-73
2022/12/15 08:02:10;;;;;;;17.63;11.05;;;16.20;67.90;;;18.12;35.36;97891.22;5063320;28;20519;-73
2022/12/15 08:04:37;;;;;;;14.75;9.52;;;16.20;67.60;;;18.11;35.41;97902.53;5052650;28;20116;-73
2022/12/15 08:07:03;;;;;;;15.50;10.23;;;16.20;67.50;;;18.09;35.38;97891.91;5036539;28;20178;-73
2022/12/15 08:09:32;;;;;;;17.42;11.13;;;16.30;67.50;;;18.09;35.49;97902.06;5068177;28;20408;-73
2022/12/15 08:11:58;;;;;;;16.63;11.43;;;16.20;67.50;;;18.05;35.65;97917.63;5037376;28;20476;-73
2022/12/15 08:14:24;;;;;;;14.60;10.32;;;16.20;67.80;;;18.08;35.90;97914.97;5033599;28;20048;-73
2022/12/15 08:16:50;;;;;;;13.75;9.23;;;16.20;67.90;;;18.08;35.86;97917.72;5019618;28;20048;-73
2022/12/15 08:19:17;;;;;;;15.60;11.13;;;16.30;67.80;;;18.08;35.72;97927.91;5017782;28;20040;-73
2022/12/15 08:21:47;;;;;;;13.30;10.10;;;16.30;67.50;;;18.07;35.71;97924.38;5017936;28;20044;-73
2022/12/15 08:24:14;;;;;;;13.57;10.05;;;16.20;67.50;;;18.02;35.45;97927.34;5023058;28;20045;-73
2022/12/15 08:26:40;;;;;;;15.43;9.70;;;16.30;67.40;;;18.08;35.29;97927.91;5034804;28;20059;-73
2022/12/15 08:29:10;;;;;;;21.13;10.70;;;16.30;67.00;;;18.07;35.90;97954.56;5058252;28;20040;-73
2022/12/15 08:31:36;;;;;;;15.00;10.32;;;16.30;67.60;;;18.10;35.71;97947.59;5018753;28;20459;-73
2022/12/15 08:34:03;;;;;;;16.02;10.90;;;16.20;67.70;;;18.15;35.53;97950.88;5035730;28;20040;-73
2022/12/15 08:36:30;;;;;;;14.05;10.05;;;16.20;67.70;;;18.09;35.43;97956.94;5018980;28;20048;-73
2022/12/15 08:38:58;;;;;;;14.63;10.13;;;16.30;67.60;;;18.07;35.41;97970.22;5033024;28;20502;-73
2022/12/15 08:41:30;;;;;;;14.73;9.90;;;16.20;67.40;;;18.10;35.61;97975.03;5033492;28;20091;-73
2022/12/15 08:43:58;;;;;;;15.18;10.55;;;16.20;67.20;;;18.08;35.37;97975.34;5034100;28;20072;-73
2022/12/15 08:46:30;;;;;;;15.32;10.20;;;16.30;67.40;;;18.10;35.73;97981.31;5035088;28;20045;-73
2022/12/15 08:48:56;;;;;;;17.65;10.70;;;16.20;67.90;;;18.08;35.92;97977.31;5040422;28;20044;-72
2022/12/15 08:51:24;;;;;;;18.83;11.02;;;16.30;68.00;;;18.04;35.74;97981.88;5034807;28;20072;-72
2022/12/15 08:53:50;;;;;;;16.60;11.23;;;16.30;67.60;;;18.06;35.65;97977.63;5019600;28;20052;-72
2022/12/15 08:56:18;;;;;;;14.13;10.48;;;16.20;67.70;;;18.09;35.55;97981.66;5063936;28;20044;-72
2022/12/15 08:58:45;;;;;;;18.25;10.75;;;16.20;67.40;;;18.10;35.56;97981.31;5038498;28;20453;-72
2022/12/15 09:01:19;;;;;;;15.15;10.02;;;16.30;67.20;;;18.11;35.75;97988.38;5035887;28;20044;-72
2022/12/15 09:03:45;;;;;;;18.00;11.23;;;16.20;67.70;;;18.15;35.51;97988.53;5015597;28;20044;-72
2022/12/15 09:06:15;;;;;;;13.20;10.32;;;16.30;67.90;;;18.09;35.75;97984.38;5033551;28;20492;-72
2022/12/15 09:08:41;;;;;;;15.88;10.98;;;16.30;67.80;;;18.09;35.37;97984.38;5037116;28;20065;-72
2022/12/15 09:11:07;;;;;;;15.00;10.20;;;16.30;67.50;;;18.08;35.75;97980.06;5052100;28;20040;-72
2022/12/15 09:13:33;;;;;;;17.48;11.40;;;16.20;67.40;;;18.10;35.44;97989.53;5053054;28;20049;-72
2022/12/15 09:16:12;;;;;;;12.93;9.00;;;16.20;67.30;;;18.11;35.46;97993.88;5033622;28;20041;-72
2022/12/15 09:18:40;;;;;;;13.95;9.70;;;16.20;67.40;;;18.10;35.67;97992.28;5053456;28;20462;-72
2022/12/15 09:21:06;;;;;;;17.70;10.43;;;16.20;67.70;;;18.13;35.49;97988.06;5017018;28;20048;-72
2022/12/15 09:23:34;;;;;;;17.67;10.70;;;16.30;67.90;;;18.10;35.76;97988.75;5023139;28;20542;-72
2022/12/15 09:26:04;;;;;;;16.98;10.63;;;16.20;67.60;;;18.10;35.53;97994.25;5040229;28;20151;-72
2022/12/15 09:28:30;;;;;;;15.63;10.05;;;16.10;67.60;;;18.09;35.41;98004.41;5038466;28;20054;-72
2022/12/15 09:31:11;;;;;;;12.43;9.35;;;16.10;67.60;;;18.06;35.44;98002.34;5024844;28;20045;-72
2022/12/15 09:33:38;;;;;;;18.20;11.57;;;16.10;67.60;;;18.11;35.57;97991.13;5038053;28;20041;-72
2022/12/15 09:36:05;;;;;;;16.52;10.75;;;16.10;67.90;;;18.12;35.90;97994.69;5072060;28;20036;-72
2022/12/15 09:38:36;;;;;;;14.18;9.50;;;16.20;68.00;;;18.08;35.58;98000.06;5022121;28;20045;-72
2022/12/15 09:41:26;;;;;;;18.65;11.20;;;16.30;67.90;;;18.07;35.78;98009.44;5050298;28;20396;-72
2022/12/15 09:44:03;;;;;;;14.95;10.80;;;16.10;67.70;;;18.09;35.47;98007.16;5048736;28;20074;-72
2022/12/15 09:47:27;;;;;;;18.80;11.18;;;16.20;67.70;;;18.06;35.39;98013.31;5052614;28;20457;-72
2022/12/15 09:49:57;;;;;;;18.00;11.05;;;16.10;67.40;;;18.11;35.54;98004.06;4972890;28;20112;-72
2022/12/15 09:52:38;;;;;;;16.17;10.32;;;16.10;67.90;;;18.11;35.63;98004.06;4973138;28;20128;-72
2022/12/15 09:55:36;;;;;;;17.63;12.02;;;16.20;67.90;;;18.15;35.52;98003.03;5002870;28;20052;-73
2022/12/15 09:58:24;;;;;;;17.80;10.88;;;16.20;67.70;;;18.12;35.44;98008.44;5020005;28;20084;-73
2022/12/15 10:01:29;;;;;;;15.18;10.10;;;16.10;67.50;;;18.11;35.44;98010.34;5045978;28;20098;-73
2022/12/15 10:04:14;;;;;;;17.52;10.65;;;16.20;67.40;;;18.08;35.52;98018.47;5039589;28;20083;-73
2022/12/15 10:07:02;;;;;;;16.67;11.38;;;16.10;67.60;;;18.12;35.63;98022.16;5071692;28;20056;-73
2022/12/15 10:09:28;;;;;;;19.25;10.07;;;16.10;67.80;;;18.13;35.69;98010.00;5034423;28;20108;-73
2022/12/15 10:12:17;;;;;;;14.18;10.15;;;16.20;67.80;;;18.08;35.72;98004.75;5039071;28;20547;-73
2022/12/15 10:14:49;;;;;;;15.73;11.20;;;16.20;67.60;;;18.11;35.63;98009.56;5045928;28;20045;-73
2022/12/15 10:17:38;;;;;;;15.88;10.93;;;16.10;67.60;;;18.06;35.51;98009.78;5026462;28;20095;-73
2022/12/15 10:20:19;;;;;;;17.98;10.85;;;16.10;67.70;;;18.05;35.23;98013.69;5054265;28;20083;-73
2022/12/15 10:22:45;;;;;;;19.50;10.52;;;16.10;67.50;;;18.16;35.59;98017.56;5027154;28;20135;-73
2022/12/15 10:25:22;;;;;;;17.05;10.98;;;16.20;67.80;;;18.18;35.57;98021.56;5039874;28;20413;-73
2022/12/15 10:28:26;;;;;;;19.27;11.13;;;16.30;67.70;;;18.09;35.62;98025.56;5060471;28;20056;-73
2022/12/15 10:31:08;;;;;;;15.10;9.85;;;16.30;67.60;;;18.08;35.39;98026.72;5055016;28;20498;-73
2022/12/15 10:33:35;;;;;;;;;;;16.20;67.40;;;17.94;35.91;98027.84;5052873;28;20056;-73
2022/12/15 10:36:09;;;;;;;15.55;10.82;;;16.10;67.50;;;17.97;35.53;98016.19;5036329;28;19920;-73
2022/12/15 10:38:37;;;;;;;17.45;9.77;;;16.10;67.40;;;18.08;35.76;98022.00;5042627;28;20051;-73
2022/12/15 10:41:11;;;;;;;16.08;10.10;;;16.20;67.70;;;18.13;35.66;98015.50;5019195;28;20048;-73
2022/12/15 10:43:40;;;;;;;18.05;9.95;;;16.20;67.60;;;18.14;35.66;98001.44;5043446;28;20131;-73
2022/12/15 10:46:17;;;;;;;16.77;11.63;;;16.30;67.50;;;18.06;35.73;97988.63;5052387;28;20040;-73
2022/12/15 10:48:51;;;;;;;16.13;9.60;;;16.20;67.40;;;18.11;35.39;97993.09;5052293;28;20091;-72
2022/12/15 10:51:30;;;;;;;14.38;10.63;;;16.20;67.40;;;18.00;35.56;98004.50;5031222;28;20045;-72
2022/12/15 10:53:59;;;;;;;17.02;10.95;;;16.20;67.40;;;18.12;35.47;98000.19;5028813;28;20036;-72
2022/12/15 10:56:27;;;;;;;14.43;9.95;;;16.20;67.40;;;18.15;35.42;98013.22;5066065;28;20111;-72
2022/12/15 10:58:59;;;;;;;17.08;11.48;;;16.20;67.40;;;18.16;35.66;98023.03;5046421;28;20047;-72
2022/12/15 11:01:31;;;;;;;14.95;9.95;;;16.30;67.60;;;18.10;35.40;98025.22;5036319;28;20072;-72
2022/12/15 11:03:58;;;;;;;18.20;11.45;;;16.30;67.30;;;18.07;35.37;98028.66;5034785;28;20117;-72
2022/12/15 11:06:35;;;;;;;17.33;11.15;;;16.30;67.40;;;18.03;35.61;98043.41;5050190;28;20472;-73
2022/12/15 11:09:24;;;;;;;17.13;10.80;;;16.20;67.30;;;17.97;35.64;98040.88;5067723;28;20113;-73
2022/12/15 11:14:46;;;;;;;15.85;10.60;;;16.20;67.70;;;18.12;35.62;98055.09;5042649;28;20566;-73
2022/12/15 11:17:17;;;;;;;16.77;11.05;;;16.30;68.00;;;18.09;35.57;98053.00;5038493;28;20036;-73
2022/12/15 11:19:55;;;;;;;;;;;16.30;67.60;;;17.96;35.60;98052.19;5050732;28;20086;-73
2022/12/15 11:22:59;;;;;;;14.75;10.57;;;16.20;67.50;;;17.95;35.74;98056.06;5039760;28;20666;-73
2022/12/15 11:25:37;;;;;;;15.23;11.52;;;16.20;67.30;;;17.93;35.68;98058.34;4952561;28;20049;-73
2022/12/15 11:28:10;;;;;;;15.07;10.95;;;16.20;67.30;;;17.95;36.03;98050.59;5027763;28;20079;-73
2022/12/15 11:30:49;;;;;;;15.43;10.85;;;16.30;67.60;;;17.99;36.05;98060.56;5022120;28;20045;-73
2022/12/15 11:33:15;;;;;;;18.27;11.05;;;16.20;67.50;;;17.94;35.71;98059.97;5036111;28;20043;-73
2022/12/15 11:36:10;;;;;;;18.92;10.80;;;16.20;67.40;;;17.87;35.64;98060.53;5054112;28;20045;-73
2022/12/15 11:39:01;;;;;;;19.63;11.55;;;16.20;67.20;;;17.85;35.82;98065.53;5049386;28;20051;-73
2022/12/15 11:41:49;;;;;;;13.07;9.77;;;16.20;67.30;;;17.86;35.92;98060.84;5037763;28;20075;-73
2022/12/15 11:44:42;;;;;;;16.48;11.05;;;16.20;67.10;;;17.91;35.97;98072.44;5073153;28;20051;-73
2022/12/15 11:47:41;;;;;;;16.75;10.90;;;16.30;67.40;;;17.97;35.90;98071.06;5044417;28;20041;-73
2022/12/15 11:50:30;;;;;;;14.63;10.68;;;16.30;67.60;;;17.87;35.85;98071.50;5047626;28;20500;-72
2022/12/15 11:53:21;;;;;;;16.42;11.50;;;16.30;67.30;;;17.83;35.92;98067.81;5049983;28;20056;-72
2022/12/15 11:56:42;;;;;;;17.98;11.63;;;16.30;67.20;;;17.79;35.83;98073.19;5066388;28;20434;-72
2022/12/15 11:59:41;;;;;;;17.05;11.77;;;16.30;67.10;;;17.85;36.07;98065.53;5052025;28;20071;-72
2022/12/15 12:02:57;;;;;;;18.85;11.52;;;16.30;67.20;;;17.91;36.00;98077.09;5067076;28;20044;-72
2022/12/15 12:05:50;;;;;;;14.25;11.10;;;16.30;67.50;;;17.81;35.90;98075.59;5057814;28;20504;-72
2022/12/15 12:08:18;;;;;;;16.40;10.80;;;16.30;67.30;;;17.79;36.10;98081.41;5031097;28;20050;-72
2022/12/15 12:11:15;;;;;;;17.42;11.15;;;16.30;67.10;;;17.81;35.90;98083.84;5068590;28;20040;-72
2022/12/15 12:14:29;;;;;;;12.95;9.88;;;16.20;67.10;;;17.79;35.84;98081.41;5015646;28;20101;-72
2022/12/15 12:17:32;;;;;;;14.30;9.63;;;16.20;67.00;;;17.85;35.67;98079.25;4972735;28;20045;-72
2022/12/15 12:19:58;;;;;;;18.92;11.27;;;16.30;67.30;;;17.86;36.16;98080.06;5057202;28;20040;-72
2022/12/15 12:22:28;;;;;;;16.58;11.38;;;16.20;67.40;;;17.90;35.63;98086.47;5022553;28;20041;-72
2022/12/15 12:25:17;;;;;;;16.38;11.45;;;16.20;67.10;;;17.79;35.96;98089.66;5034930;28;20045;-72
2022/12/15 12:27:51;;;;;;;17.48;11.60;;;16.20;67.10;;;17.78;35.80;98078.97;5052898;28;20044;-72
2022/12/15 12:30:24;;;;;;;17.38;12.00;;;16.20;67.20;;;17.79;35.90;98086.91;5065563;28;20036;-72
2022/12/15 12:33:05;;;;;;;18.30;11.38;;;16.20;67.00;;;17.85;36.16;98097.66;5039274;28;20044;-72
2022/12/15 12:35:54;;;;;;;16.73;11.13;;;16.30;67.40;;;17.81;36.24;98100.28;5054920;28;20052;-72
2022/12/15 12:38:35;;;;;;;14.52;10.15;;;16.20;67.50;;;17.77;35.79;98091.88;5023804;28;20045;-72
2022/12/15 12:41:41;;;;;;;15.90;10.85;;;16.20;67.20;;;17.79;35.79;98077.84;5024325;28;20054;-73
2022/12/15 12:44:16;;;;;;;17.13;11.07;;;16.30;67.20;;;17.82;35.60;98060.75;5056422;28;20043;-73
2022/12/15 12:46:46;;;;;;;19.35;11.68;;;16.20;67.10;;;17.85;35.86;98060.06;5055986;28;20040;-73
2022/12/15 12:49:29;;;;;;;17.08;11.05;;;16.20;67.10;;;17.94;35.63;98060.75;5034633;28;20480;-73
2022/12/15 12:51:58;;;;;;;16.98;11.43;;;16.20;67.40;;;17.97;35.79;98070.25;5036639;28;20337;-73
2022/12/15 12:54:33;;;;;;;15.60;10.63;;;16.30;67.20;;;17.98;35.56;98071.84;5040783;28;20408;-73
2022/12/15 12:57:00;;;;;;;18.33;11.13;;;16.30;66.90;;;17.99;35.40;98079.75;5065699;28;20041;-73